Time;durP1;ratioP1;P1;durP2;ratioP2;P2;SDS_P1;SDS_P2;PMS_P1;PMS_P2;Temp;Humidity;BMP_temperature;BMP_pressure;BME280_temperature;BME280_humidity;BME280_pressure;Samples;Min_cycle;Max_cycle;Signal;HPM_P1;HPM_P2
2022/04/12 00:00:36;;;;;;;6.30;5.60;;;4.00;99.90;;;;;;5050188;28;20175;-73
2022/04/12 00:03:02;;;;;;;6.10;5.50;;;4.10;99.90;;;;;;5041491;28;20212;-75
2022/04/12 00:05:28;;;;;;;6.70;6.10;;;4.00;99.90;;;;;;5043477;28;20187;-75
2022/04/12 00:07:54;;;;;;;7.70;6.27;;;4.00;99.90;;;;;;5047009;28;20190;-75
2022/04/12 00:10:19;;;;;;;7.83;6.50;;;3.80;99.90;;;;;;5051056;28;20669;-73
2022/04/12 00:12:46;;;;;;;6.30;5.70;;;3.70;99.90;;;;;;5043476;28;20204;-73
2022/04/12 00:15:11;;;;;;;7.13;5.97;;;3.60;99.90;;;;;;5049149;28;20184;-73
2022/04/12 00:20:26;;;;;;;6.90;6.20;;;3.50;99.90;;;;;;5054361;28;20191;-73
2022/04/12 00:22:58;;;;;;;6.23;5.63;;;3.50;99.90;;;;;;5047636;28;20214;-73
2022/04/12 00:25:25;;;;;;;7.40;6.03;;;3.60;99.90;;;;;;5050978;28;20543;-73
2022/04/12 00:27:53;;;;;;;7.13;5.80;;;3.70;99.90;;;;;;5050914;28;20196;-73
2022/04/12 00:30:19;;;;;;;6.23;5.63;;;3.80;99.90;;;;;;5046670;28;20212;-73
2022/04/12 00:32:46;;;;;;;5.43;4.93;;;3.70;99.90;;;;;;5043420;28;20294;-74
2022/04/12 00:35:12;;;;;;;6.27;5.67;;;3.60;99.90;;;;;;5047459;28;20207;-73
2022/04/12 00:37:38;;;;;;;6.80;6.20;;;3.50;99.90;;;;;;5049327;28;20187;-73
2022/04/12 00:40:05;;;;;;;8.37;6.43;;;3.40;99.90;;;;;;5050062;28;20529;-73
2022/04/12 00:42:31;;;;;;;6.80;5.93;;;3.30;99.90;;;;;;5045936;28;20250;-73
2022/04/12 00:44:57;;;;;;;5.83;5.27;;;3.30;99.90;;;;;;5022763;28;20224;-73
2022/04/12 00:47:24;;;;;;;6.63;6.00;;;3.30;99.90;;;;;;5047854;28;20241;-73
2022/04/12 00:49:49;;;;;;;6.63;6.00;;;3.20;99.90;;;;;;5045220;28;20237;-73
2022/04/12 00:52:16;;;;;;;6.43;5.33;;;3.30;99.90;;;;;;5045163;28;20181;-73
2022/04/12 00:54:44;;;;;;;7.10;5.60;;;3.30;99.90;;;;;;5035611;28;20212;-73
2022/04/12 00:57:10;;;;;;;7.03;6.03;;;3.40;99.90;;;;;;5046270;28;20264;-73
2022/04/12 00:59:36;;;;;;;6.50;5.90;;;3.30;99.90;;;;;;5048112;28;20184;-71
2022/04/12 01:02:06;;;;;;;8.03;5.43;;;3.40;99.90;;;;;;5042975;28;20299;-73
2022/04/12 01:04:32;;;;;;;9.20;5.67;;;3.50;99.90;;;;;;5045982;28;20188;-73
2022/04/12 01:06:59;;;;;;;6.60;5.80;;;3.50;99.90;;;;;;5045904;28;20180;-73
2022/04/12 01:09:28;;;;;;;6.60;5.73;;;3.40;99.90;;;;;;5050380;28;20257;-72
2022/04/12 01:11:54;;;;;;;7.83;5.83;;;3.40;99.90;;;;;;5045757;28;20653;-74
2022/04/12 01:14:22;;;;;;;7.27;6.00;;;3.40;99.90;;;;;;5043285;28;20207;-73
2022/04/12 01:16:48;;;;;;;5.97;5.37;;;3.30;99.90;;;;;;5047567;28;20171;-73
2022/04/12 01:19:13;;;;;;;6.67;5.97;;;3.10;99.90;;;;;;5046966;28;20272;-73
2022/04/12 01:22:00;;;;;;;7.33;6.07;;;3.00;99.90;;;;;;5047069;28;20266;-70
2022/04/12 01:24:27;;;;;;;5.87;5.37;;;3.10;99.90;;;;;;5040638;28;20200;-71
2022/04/12 01:26:52;;;;;;;8.67;5.93;;;3.10;99.90;;;;;;5041110;28;20193;-71
2022/04/12 01:29:18;;;;;;;6.87;6.23;;;3.20;99.90;;;;;;5042536;28;20212;-71
2022/04/12 01:31:44;;;;;;;7.13;5.97;;;3.10;99.90;;;;;;5039783;28;20259;-71
2022/04/12 01:34:09;;;;;;;7.17;6.43;;;3.00;99.90;;;;;;5036286;28;20209;-70
2022/04/12 01:36:35;;;;;;;6.20;5.63;;;3.00;99.90;;;;;;5047900;28;20230;-71
2022/04/12 01:39:02;;;;;;;6.70;6.10;;;3.00;99.90;;;;;;5046152;28;20211;-71
2022/04/12 01:41:28;;;;;;;8.43;6.50;;;3.00;99.90;;;;;;5050725;28;20245;-71
2022/04/12 01:43:53;;;;;;;6.73;6.03;;;3.00;99.90;;;;;;5045666;28;20205;-70
2022/04/12 01:46:19;;;;;;;8.63;6.93;;;3.00;99.90;;;;;;5047863;28;20195;-71
2022/04/12 01:48:47;;;;;;;7.20;6.27;;;3.00;99.90;;;;;;5042084;28;20208;-70
2022/04/12 01:51:13;;;;;;;7.23;5.37;;;3.00;99.90;;;;;;5050249;28;20183;-70
2022/04/12 01:53:39;;;;;;;6.10;5.50;;;3.00;99.90;;;;;;5043801;28;20208;-71
2022/04/12 01:56:05;;;;;;;5.43;4.93;;;3.10;99.90;;;;;;5044974;28;20207;-69
2022/04/12 01:58:32;;;;;;;6.40;5.80;;;3.00;99.90;;;;;;5043102;28;20564;-71
2022/04/12 02:00:58;;;;;;;6.20;5.60;;;3.00;99.90;;;;;;5043433;28;20190;-71
2022/04/12 02:03:24;;;;;;;6.43;5.83;;;2.90;99.90;;;;;;5041019;28;20575;-71
2022/04/12 02:05:51;;;;;;;5.50;5.00;;;2.90;99.90;;;;;;5046597;28;20184;-71
2022/04/12 02:08:17;;;;;;;6.13;5.53;;;2.90;99.90;;;;;;5044322;28;20229;-71
2022/04/12 02:10:42;;;;;;;5.63;5.07;;;2.90;99.90;;;;;;5044405;28;20299;-70
2022/04/12 02:13:08;;;;;;;5.67;5.17;;;2.80;99.90;;;;;;5039727;28;20294;-71
2022/04/12 02:15:34;;;;;;;7.40;5.67;;;2.80;99.90;;;;;;5043492;28;20664;-71
2022/04/12 02:17:59;;;;;;;5.27;4.87;;;2.80;99.90;;;;;;5051113;28;20238;-71
2022/04/12 02:20:25;;;;;;;5.30;4.77;;;2.80;99.90;;;;;;5045578;28;20212;-71
2022/04/12 02:22:51;;;;;;;5.67;5.17;;;2.90;99.90;;;;;;5041461;28;20211;-71
2022/04/12 02:25:16;;;;;;;5.77;5.20;;;2.90;99.90;;;;;;5042682;28;20247;-70
2022/04/12 02:27:42;;;;;;;7.03;5.73;;;2.90;99.90;;;;;;5044346;28;20581;-71
2022/04/12 02:30:08;;;;;;;9.80;6.37;;;2.80;99.90;;;;;;5026319;28;20219;-71
2022/04/12 02:32:34;;;;;;;6.33;5.73;;;2.80;99.90;;;;;;5046148;28;20236;-71
2022/04/12 02:35:00;;;;;;;7.77;6.40;;;2.70;99.90;;;;;;5041758;28;20211;-70
2022/04/12 02:37:29;;;;;;;6.47;5.77;;;2.60;99.90;;;;;;5031860;28;20184;-71
2022/04/12 02:39:54;;;;;;;6.73;6.13;;;2.60;99.90;;;;;;5045002;28;20176;-71
2022/04/12 02:42:20;;;;;;;8.43;6.77;;;2.50;99.90;;;;;;5040301;28;20199;-72
2022/04/12 02:44:46;;;;;;;7.27;6.50;;;2.50;99.90;;;;;;5040900;28;20187;-70
2022/04/12 02:47:12;;;;;;;6.80;6.17;;;2.40;99.90;;;;;;5034421;28;20274;-71
2022/04/12 02:49:37;;;;;;;6.63;5.90;;;2.50;99.90;;;;;;5052488;28;20865;-70
2022/04/12 02:52:03;;;;;;;6.37;5.77;;;2.60;99.90;;;;;;5049226;28;20184;-71
2022/04/12 02:54:29;;;;;;;6.17;5.60;;;2.50;99.90;;;;;;5042383;28;20184;-72
2022/04/12 02:56:54;;;;;;;6.50;5.87;;;2.50;99.90;;;;;;5051691;28;20206;-70
2022/04/12 02:59:20;;;;;;;6.97;6.43;;;2.40;99.90;;;;;;5027542;28;20196;-70
2022/04/12 03:01:46;;;;;;;6.13;5.33;;;2.40;99.90;;;;;;5051592;28;20246;-71
2022/04/12 03:04:11;;;;;;;6.67;6.07;;;2.30;99.90;;;;;;5051105;28;20211;-71
2022/04/12 03:06:37;;;;;;;5.90;5.40;;;2.30;99.90;;;;;;5045814;28;20671;-71
2022/04/12 03:09:02;;;;;;;7.13;5.70;;;2.30;99.90;;;;;;5047142;28;20208;-71
2022/04/12 03:11:28;;;;;;;6.50;5.90;;;2.20;99.90;;;;;;5046276;28;20215;-71
2022/04/12 03:13:54;;;;;;;6.73;6.13;;;2.20;99.90;;;;;;5048574;28;20231;-71
2022/04/12 03:16:19;;;;;;;6.57;5.97;;;2.20;99.90;;;;;;5051389;28;20272;-71
2022/04/12 03:18:45;;;;;;;6.73;6.10;;;2.20;99.90;;;;;;5058242;28;20191;-70
2022/04/12 03:21:11;;;;;;;6.77;6.07;;;2.20;99.90;;;;;;5055226;28;20194;-70
2022/04/12 03:23:37;;;;;;;7.10;6.30;;;2.20;99.90;;;;;;5052192;28;20203;-68
2022/04/12 03:26:03;;;;;;;6.57;6.00;;;2.10;99.90;;;;;;5055878;28;20192;-68
2022/04/12 03:28:29;;;;;;;7.87;6.43;;;2.10;99.90;;;;;;5049229;28;20244;-70
2022/04/12 03:30:55;;;;;;;6.73;6.00;;;2.00;99.90;;;;;;5047299;28;20187;-71
2022/04/12 03:33:20;;;;;;;7.27;6.50;;;2.00;99.90;;;;;;5044190;28;20211;-70
2022/04/12 03:35:46;;;;;;;7.63;5.80;;;1.90;99.90;;;;;;5052327;28;20514;-71
2022/04/12 03:38:13;;;;;;;7.07;6.20;;;1.90;99.90;;;;;;5057721;28;20605;-71
2022/04/12 03:40:41;;;;;;;7.47;6.77;;;1.90;99.90;;;;;;5049751;28;20238;-72
2022/04/12 03:43:06;;;;;;;7.30;6.60;;;1.90;99.90;;;;;;5045602;28;20208;-70
2022/04/12 03:45:33;;;;;;;10.53;7.43;;;1.80;99.90;;;;;;5046077;28;20263;-71
2022/04/12 03:47:59;;;;;;;6.77;6.17;;;1.80;99.90;;;;;;5046122;28;20201;-71
2022/04/12 03:50:26;;;;;;;7.53;6.77;;;1.80;99.90;;;;;;5046228;28;20215;-71
2022/04/12 03:52:52;;;;;;;6.50;5.90;;;1.80;99.90;;;;;;5046653;28;20203;-70
2022/04/12 03:55:31;;;;;;;7.20;6.40;;;1.80;99.90;;;;;;5045355;28;20642;-70
2022/04/12 03:58:07;;;;;;;7.47;5.47;;;1.70;99.90;;;;;;5044208;28;20188;-70
2022/04/12 04:00:34;;;;;;;8.87;6.87;;;1.70;99.90;;;;;;5048838;28;20186;-72
2022/04/12 04:03:00;;;;;;;6.27;5.70;;;1.60;99.90;;;;;;5046639;28;20211;-72
2022/04/12 04:05:26;;;;;;;6.90;6.33;;;1.60;99.90;;;;;;5053100;28;20191;-72
2022/04/12 04:07:52;;;;;;;6.63;5.93;;;1.60;99.90;;;;;;5055891;28;20184;-71
2022/04/12 04:10:18;;;;;;;6.57;5.97;;;1.60;99.90;;;;;;5052015;28;20207;-71
2022/04/12 04:12:44;;;;;;;8.07;6.30;;;1.50;99.90;;;;;;5061390;28;20268;-71
2022/04/12 04:15:14;;;;;;;5.97;5.47;;;1.50;99.90;;;;;;5051446;28;20677;-71
2022/04/12 04:17:42;;;;;;;9.40;6.23;;;1.60;99.90;;;;;;5055852;28;20209;-71
2022/04/12 04:20:09;;;;;;;7.43;5.83;;;1.70;99.90;;;;;;5054342;28;20191;-71
2022/04/12 04:22:35;;;;;;;6.90;6.20;;;1.80;99.90;;;;;;5049945;28;20208;-69
2022/04/12 04:25:00;;;;;;;6.97;6.37;;;1.70;99.90;;;;;;5051735;28;20188;-69
2022/04/12 04:27:28;;;;;;;7.53;6.40;;;1.70;99.90;;;;;;5047917;28;20192;-71
2022/04/12 04:29:55;;;;;;;8.07;6.30;;;1.70;99.90;;;;;;5036715;28;20603;-71
2022/04/12 04:32:22;;;;;;;7.10;5.93;;;1.60;99.90;;;;;;5046412;28;20180;-71
2022/04/12 04:34:47;;;;;;;8.23;6.13;;;1.60;99.90;;;;;;5031858;28;20190;-71
2022/04/12 04:37:13;;;;;;;6.60;5.90;;;1.60;99.90;;;;;;5049640;28;20192;-70
2022/04/12 04:39:39;;;;;;;7.27;6.53;;;1.60;99.90;;;;;;5046897;28;20192;-71
2022/04/12 04:42:05;;;;;;;7.67;6.67;;;1.60;99.90;;;;;;5043588;28;20183;-71
2022/04/12 04:44:31;;;;;;;6.73;6.03;;;1.50;99.90;;;;;;5051845;28;20188;-71
2022/04/12 04:46:57;;;;;;;7.60;6.70;;;1.40;99.90;;;;;;5051047;28;20191;-71
2022/04/12 04:49:23;;;;;;;9.00;6.40;;;1.50;99.90;;;;;;5045894;28;20248;-71
2022/04/12 04:51:48;;;;;;;7.17;6.00;;;1.50;99.90;;;;;;5048021;28;20546;-71
2022/04/12 04:54:14;;;;;;;6.77;6.00;;;1.60;99.90;;;;;;5046547;28;20204;-71
2022/04/12 04:56:40;;;;;;;8.47;6.80;;;1.70;99.90;;;;;;5041164;28;20207;-70
2022/04/12 04:59:05;;;;;;;7.07;6.33;;;1.70;99.90;;;;;;5039063;28;20196;-69
2022/04/12 05:01:31;;;;;;;9.60;6.97;;;1.70;99.90;;;;;;5043042;28;20192;-71
2022/04/12 05:03:57;;;;;;;6.93;6.30;;;1.80;99.90;;;;;;5045052;28;20219;-71
2022/04/12 05:06:23;;;;;;;10.23;7.40;;;1.80;99.90;;;;;;5028667;28;20661;-71
2022/04/12 05:08:48;;;;;;;6.90;6.20;;;1.80;99.90;;;;;;5043793;28;20262;-70
2022/04/12 05:11:14;;;;;;;7.03;6.03;;;1.90;99.90;;;;;;5043351;28;20189;-69
2022/04/12 05:13:39;;;;;;;9.60;6.30;;;2.00;99.90;;;;;;5034094;28;20257;-70
2022/04/12 05:16:05;;;;;;;7.03;6.33;;;2.10;99.90;;;;;;5051564;28;20184;-70
2022/04/12 05:18:31;;;;;;;7.10;6.40;;;2.10;99.90;;;;;;5052122;28;20207;-70
2022/04/12 05:20:56;;;;;;;7.87;5.93;;;2.20;99.90;;;;;;5029298;28;20184;-70
2022/04/12 05:23:22;;;;;;;7.60;5.93;;;2.30;99.90;;;;;;5051439;28;20207;-71
2022/04/12 05:25:48;;;;;;;7.23;6.27;;;2.40;99.90;;;;;;5052333;28;20183;-71
2022/04/12 05:28:14;;;;;;;6.80;6.17;;;2.30;99.90;;;;;;5050208;28;20181;-74
2022/04/12 05:30:40;;;;;;;7.10;6.40;;;2.40;99.90;;;;;;5051606;28;20736;-73
2022/04/12 05:33:05;;;;;;;12.53;6.83;;;2.50;99.90;;;;;;5054685;28;20717;-75
2022/04/12 05:35:31;;;;;;;6.60;6.00;;;2.50;99.90;;;;;;5041349;28;20703;-75
2022/04/12 05:37:58;;;;;;;7.30;6.37;;;2.60;99.90;;;;;;5053661;28;20626;-72
2022/04/12 05:40:24;;;;;;;9.33;6.60;;;2.70;99.90;;;;;;5032042;28;20207;-73
2022/04/12 05:42:51;;;;;;;7.33;5.87;;;2.80;99.90;;;;;;5056645;28;21017;-73
2022/04/12 05:45:17;;;;;;;10.30;6.80;;;2.90;99.90;;;;;;5055060;28;20183;-73
2022/04/12 05:47:45;;;;;;;7.10;5.90;;;3.00;99.90;;;;;;5058670;28;20176;-72
2022/04/12 05:50:13;;;;;;;9.23;6.00;;;3.10;99.90;;;;;;5048201;28;20218;-72
2022/04/12 05:52:39;;;;;;;7.20;6.50;;;3.30;99.90;;;;;;5049620;28;20199;-71
2022/04/12 05:55:06;;;;;;;8.27;6.93;;;3.40;99.90;;;;;;5031097;28;20194;-71
2022/04/12 05:57:34;;;;;;;11.17;7.10;;;3.50;99.90;;;;;;5053905;28;20282;-70
2022/04/12 05:59:59;;;;;;;8.33;7.00;;;3.60;99.90;;;;;;5047219;28;20196;-70
2022/04/12 06:02:25;;;;;;;8.57;5.80;;;3.80;99.90;;;;;;5043864;28;20216;-68
2022/04/12 06:04:51;;;;;;;7.93;6.33;;;4.00;99.90;;;;;;5053397;28;20176;-76
2022/04/12 06:07:16;;;;;;;6.40;5.80;;;4.10;99.90;;;;;;5046856;28;20602;-68
2022/04/12 06:09:42;;;;;;;8.53;6.20;;;4.30;99.90;;;;;;5046689;28;20204;-72
2022/04/12 06:12:08;;;;;;;8.20;6.33;;;4.50;99.90;;;;;;5045481;28;20189;-73
2022/04/12 06:14:34;;;;;;;7.00;5.80;;;4.60;99.90;;;;;;5031492;28;20548;-75
2022/04/12 06:16:59;;;;;;;6.20;5.60;;;4.60;99.90;;;;;;5041606;28;20188;-73
2022/04/12 06:19:25;;;;;;;8.20;6.57;;;4.80;99.90;;;;;;5043956;28;20181;-74
2022/04/12 06:21:50;;;;;;;9.07;5.67;;;4.90;99.90;;;;;;5044488;28;20199;-75
2022/04/12 06:24:18;;;;;;;5.70;5.10;;;5.00;99.90;;;;;;5041864;28;20199;-75
2022/04/12 06:26:44;;;;;;;6.80;6.00;;;5.20;99.90;;;;;;5030489;28;20189;-77
2022/04/12 06:29:09;;;;;;;6.80;4.63;;;5.40;99.90;;;;;;5048182;28;20851;-79
2022/04/12 06:31:35;;;;;;;6.93;5.23;;;5.60;99.90;;;;;;5034349;28;20189;-77
2022/04/12 06:34:01;;;;;;;9.03;5.97;;;5.80;99.90;;;;;;5037241;28;20301;-78
2022/04/12 06:36:26;;;;;;;7.53;5.17;;;5.90;99.90;;;;;;5051813;28;20188;-74
2022/04/12 06:38:53;;;;;;;6.67;4.87;;;6.00;99.90;;;;;;5054136;28;20233;-77
2022/04/12 06:41:19;;;;;;;4.93;4.40;;;6.20;99.90;;;;;;5053868;28;20276;-79
2022/04/12 06:43:44;;;;;;;5.07;4.57;;;6.40;99.90;;;;;;5066101;28;20230;-73
2022/04/12 06:46:10;;;;;;;5.03;4.60;;;6.60;99.90;;;;;;5054739;28;20668;-77
2022/04/12 06:48:36;;;;;;;5.13;4.63;;;6.90;99.90;;;;;;5061999;28;20218;-74
2022/04/12 06:51:01;;;;;;;5.00;4.57;;;7.10;99.90;;;;;;5051394;28;20605;-74
2022/04/12 06:53:28;;;;;;;7.27;4.10;;;7.30;99.90;;;;;;5032014;28;20203;-81
2022/04/12 06:55:54;;;;;;;10.67;4.40;;;7.50;99.90;;;;;;5038361;28;20171;-76
2022/04/12 06:58:19;;;;;;;10.93;4.37;;;7.70;99.90;;;;;;5050701;28;20203;-77
2022/04/12 07:00:45;;;;;;;10.17;4.00;;;7.90;99.90;;;;;;5036739;28;20567;-83
2022/04/12 07:03:11;;;;;;;4.70;4.00;;;8.00;99.90;;;;;;5048612;28;20575;-77
2022/04/12 07:05:36;;;;;;;4.10;3.70;;;8.20;99.90;;;;;;5059971;28;20262;-78
2022/04/12 07:08:02;;;;;;;5.28;3.60;;;8.30;99.90;;;;;;5061201;28;20317;-76
2022/04/12 07:10:28;;;;;;;7.22;4.43;;;8.40;99.90;;;;;;5051774;28;20573;-76
2022/04/12 07:12:53;;;;;;;4.40;3.73;;;8.50;99.90;;;;;;5059817;28;20197;-76
2022/04/12 07:15:20;;;;;;;6.03;3.83;;;8.40;99.90;;;;;;5054370;28;20727;-71
2022/04/12 07:17:45;;;;;;;3.78;3.05;;;8.40;99.90;;;;;;5060122;28;20171;-72
2022/04/12 07:20:12;;;;;;;4.10;3.33;;;8.40;99.90;;;;;;5052364;28;20311;-72
2022/04/12 07:22:37;;;;;;;4.00;3.40;;;8.50;99.90;;;;;;5059262;28;20200;-72
2022/04/12 07:25:04;;;;;;;5.28;3.15;;;8.60;99.90;;;;;;5058687;28;20190;-73
2022/04/12 07:27:37;;;;;;;4.93;3.15;;;8.70;99.90;;;;;;5055888;28;20282;-72
2022/04/12 07:30:04;;;;;;;2.90;2.70;;;8.80;99.90;;;;;;5049636;28;20568;-72
2022/04/12 07:32:30;;;;;;;2.67;2.47;;;8.80;99.90;;;;;;5045980;28;20239;-72
2022/04/12 07:34:56;;;;;;;3.03;2.83;;;8.90;99.90;;;;;;5053179;28;20712;-72
2022/04/12 07:37:21;;;;;;;3.45;2.85;;;9.00;99.90;;;;;;5055991;28;20673;-72
2022/04/12 07:39:47;;;;;;;3.85;2.80;;;9.00;99.90;;;;;;5048763;28;20176;-72
2022/04/12 07:42:13;;;;;;;3.17;2.97;;;9.00;99.90;;;;;;5057998;28;20180;-72
2022/04/12 07:44:39;;;;;;;3.95;3.40;;;9.00;99.90;;;;;;5060828;28;20402;-73
2022/04/12 07:47:05;;;;;;;4.40;3.08;;;9.00;99.90;;;;;;5057337;28;20227;-73
2022/04/12 07:49:30;;;;;;;5.40;3.20;;;9.00;99.90;;;;;;5057306;28;20212;-73
2022/04/12 07:51:56;;;;;;;4.45;3.58;;;9.00;99.90;;;;;;5054149;28;20183;-73
2022/04/12 07:54:22;;;;;;;3.75;3.20;;;9.00;99.90;;;;;;5058863;28;20594;-73
2022/04/12 07:56:47;;;;;;;3.67;3.15;;;9.10;99.90;;;;;;5059896;28;20180;-73
2022/04/12 07:59:13;;;;;;;4.40;3.22;;;9.10;99.90;;;;;;5053144;28;20192;-73
2022/04/12 08:01:38;;;;;;;3.50;3.17;;;9.20;99.90;;;;;;5052819;28;20179;-72
2022/04/12 08:04:04;;;;;;;4.82;3.40;;;9.30;99.90;;;;;;5056954;28;20226;-73
2022/04/12 08:06:30;;;;;;;3.67;3.05;;;9.40;99.90;;;;;;5048652;28;20184;-74
2022/04/12 08:08:56;;;;;;;5.03;3.72;;;9.60;99.90;;;;;;5055311;28;20203;-74
2022/04/12 08:11:21;;;;;;;3.53;3.22;;;9.70;99.90;;;;;;5055440;28;20211;-74
2022/04/12 08:13:47;;;;;;;4.28;3.47;;;9.90;99.90;;;;;;5061594;28;20204;-74
2022/04/12 08:16:15;;;;;;;3.47;3.17;;;10.00;99.90;;;;;;5055627;28;20568;-72
2022/04/12 08:18:44;;;;;;;4.40;3.50;;;10.10;99.90;;;;;;5054332;28;20609;-75
2022/04/12 08:21:10;;;;;;;5.53;3.58;;;10.20;99.90;;;;;;5049050;28;20184;-74
2022/04/12 08:23:35;;;;;;;5.38;3.15;;;10.20;99.90;;;;;;5036611;28;20245;-74
2022/04/12 08:26:01;;;;;;;3.45;3.20;;;10.30;99.90;;;;;;5043172;28;20186;-73
2022/04/12 08:28:27;;;;;;;3.88;3.00;;;10.50;99.90;;;;;;5046050;28;20234;-73
2022/04/12 08:30:52;;;;;;;3.38;3.08;;;10.70;99.90;;;;;;5042755;28;20678;-73
2022/04/12 08:33:18;;;;;;;2.83;2.65;;;10.80;99.90;;;;;;5045252;28;20200;-74
2022/04/12 08:35:44;;;;;;;3.10;2.83;;;11.10;99.90;;;;;;5058517;28;20167;-73
2022/04/12 08:38:09;;;;;;;3.33;3.03;;;11.30;99.90;;;;;;5051989;28;20187;-73
2022/04/12 08:40:36;;;;;;;3.08;2.88;;;11.50;99.90;;;;;;5035278;28;20188;-74
2022/04/12 08:43:01;;;;;;;4.32;2.80;;;11.70;99.90;;;;;;5051001;28;20203;-74
2022/04/12 08:45:27;;;;;;;3.45;2.85;;;12.00;99.90;;;;;;5043732;28;20189;-74
2022/04/12 08:47:53;;;;;;;3.50;2.47;;;12.30;99.80;;;;;;5047921;28;20689;-74
2022/04/12 08:50:21;;;;;;;3.20;2.90;;;12.50;98.10;;;;;;5051842;28;20580;-74
2022/04/12 08:52:48;;;;;;;3.00;2.80;;;12.60;96.10;;;;;;5050790;28;20195;-74
2022/04/12 08:55:14;;;;;;;3.05;2.55;;;12.80;95.80;;;;;;5048925;28;20557;-73
2022/04/12 08:57:39;;;;;;;2.92;2.67;;;13.00;95.60;;;;;;5048240;28;20196;-74
2022/04/12 09:00:06;;;;;;;3.13;2.63;;;13.30;95.20;;;;;;5050059;28;20180;-73
2022/04/12 09:02:32;;;;;;;2.72;2.45;;;13.60;93.60;;;;;;5046974;28;20204;-73
2022/04/12 09:04:58;;;;;;;2.55;2.35;;;13.90;90.60;;;;;;5050897;28;20206;-73
2022/04/12 09:07:26;;;;;;;4.00;2.65;;;14.20;88.20;;;;;;5033431;28;20298;-74
2022/04/12 09:09:52;;;;;;;2.72;2.53;;;14.90;84.80;;;;;;5055722;28;20191;-73
2022/04/12 09:12:18;;;;;;;4.10;2.40;;;16.30;76.40;;;;;;5045838;28;20594;-73
2022/04/12 09:14:52;;;;;;;2.10;2.00;;;17.90;71.30;;;;;;5051862;28;20213;-74
2022/04/12 09:17:29;;;;;;;2.60;2.40;;;18.80;63.00;;;;;;5048881;28;20176;-73
2022/04/12 09:19:55;;;;;;;5.60;2.72;;;20.10;58.50;;;;;;5054323;28;20182;-74
2022/04/12 09:22:27;;;;;;;2.50;2.30;;;22.10;55.10;;;;;;5056725;28;20271;-71
2022/04/12 09:25:04;;;;;;;2.97;2.78;;;23.50;51.80;;;;;;5048678;28;20569;-74
2022/04/12 09:27:32;;;;;;;2.95;2.42;;;24.50;48.90;;;;;;5035577;28;20186;-74
2022/04/12 09:30:09;;;;;;;2.47;2.38;;;25.40;46.90;;;;;;5043289;28;20199;-74
2022/04/12 09:32:40;;;;;;;2.90;2.70;;;26.80;43.80;;;;;;5027236;28;20224;-72
2022/04/12 09:35:08;;;;;;;3.03;2.75;;;27.60;42.60;;;;;;5035128;28;20654;-74
2022/04/12 09:37:38;;;;;;;6.07;2.50;;;28.50;41.50;;;;;;5050735;28;20185;-74
2022/04/12 09:40:07;;;;;;;3.55;3.17;;;29.00;41.40;;;;;;5046274;28;20226;-74
2022/04/12 09:42:50;;;;;;;2.72;2.40;;;28.80;39.00;;;;;;5047129;28;20674;-74
2022/04/12 09:45:25;;;;;;;4.15;2.60;;;29.20;39.60;;;;;;5054388;28;20177;-75
2022/04/12 09:47:52;;;;;;;3.58;2.78;;;29.10;38.50;;;;;;5046402;28;20541;-75
2022/04/12 09:50:27;;;;;;;3.00;2.80;;;29.30;38.80;;;;;;5050585;28;20254;-74
2022/04/12 09:53:02;;;;;;;2.95;2.63;;;29.70;38.30;;;;;;5051564;28;20241;-74
2022/04/12 09:55:49;;;;;;;2.92;2.72;;;30.00;37.60;;;;;;5054278;28;20263;-74
2022/04/12 09:58:18;;;;;;;4.35;2.63;;;30.00;36.90;;;;;;5040360;28;20282;-74
2022/04/12 10:00:47;;;;;;;2.70;2.50;;;30.10;35.90;;;;;;5046595;28;20184;-74
2022/04/12 10:03:14;;;;;;;2.95;2.75;;;30.80;36.60;;;;;;5049545;28;20210;-74
2022/04/12 10:05:42;;;;;;;2.80;2.60;;;31.10;35.40;;;;;;5046737;28;20176;-75
2022/04/12 10:08:10;;;;;;;2.83;2.63;;;30.90;35.30;;;;;;5043967;28;20306;-77
2022/04/12 10:10:36;;;;;;;3.10;2.58;;;30.80;35.00;;;;;;5052608;28;20214;-77
2022/04/12 10:13:02;;;;;;;2.72;2.53;;;31.40;35.40;;;;;;5052628;28;20202;-75
2022/04/12 10:15:28;;;;;;;2.75;2.40;;;32.40;34.10;;;;;;5060147;28;20222;-75
2022/04/12 10:17:55;;;;;;;4.07;2.97;;;32.80;32.60;;;;;;5058861;28;20172;-74
2022/04/12 10:20:21;;;;;;;3.80;3.10;;;33.40;33.00;;;;;;5053991;28;20187;-75
2022/04/12 10:22:49;;;;;;;3.58;3.30;;;33.80;33.60;;;;;;5056863;28;20203;-73
2022/04/12 10:25:23;;;;;;;3.08;2.88;;;32.80;33.90;;;;;;5058056;28;20176;-74
2022/04/12 10:27:51;;;;;;;3.20;3.00;;;33.00;34.80;;;;;;5053668;28;20178;-74
2022/04/12 10:30:17;;;;;;;3.33;3.13;;;34.00;34.30;;;;;;5054573;28;20700;-74
2022/04/12 10:33:02;;;;;;;3.30;3.00;;;34.30;32.80;;;;;;5059407;28;20202;-75
2022/04/12 10:35:29;;;;;;;3.72;3.20;;;35.20;31.80;;;;;;5056033;28;20179;-75
2022/04/12 10:37:59;;;;;;;3.90;3.50;;;35.50;31.90;;;;;;5060063;28;20177;-75
2022/04/12 10:40:26;;;;;;;4.32;3.03;;;34.90;30.70;;;;;;5052680;28;21020;-74
2022/04/12 10:42:54;;;;;;;3.97;3.67;;;34.00;32.50;;;;;;5058410;28;20195;-73
2022/04/12 10:45:31;;;;;;;3.20;3.00;;;35.00;31.40;;;;;;5052924;28;20188;-73
2022/04/12 10:47:58;;;;;;;3.72;3.47;;;35.60;30.50;;;;;;5043531;28;20179;-73
2022/04/12 10:50:24;;;;;;;3.30;3.10;;;34.80;31.00;;;;;;5057240;28;20638;-73
2022/04/12 10:52:50;;;;;;;3.28;3.00;;;34.20;33.00;;;;;;5050169;28;20275;-72
2022/04/12 10:55:17;;;;;;;4.57;4.18;;;34.90;30.10;;;;;;5040881;28;20705;-73
2022/04/12 10:57:43;;;;;;;4.22;3.75;;;33.90;30.60;;;;;;5045259;28;20191;-70
2022/04/12 11:00:16;;;;;;;4.00;3.70;;;33.80;32.10;;;;;;5043041;28;20547;-72
2022/04/12 11:03:02;;;;;;;3.17;2.97;;;34.20;31.50;;;;;;5040386;28;20208;-70
2022/04/12 11:05:39;;;;;;;3.03;2.83;;;35.00;31.90;;;;;;5043189;28;20210;-71
2022/04/12 11:08:06;;;;;;;3.72;3.40;;;36.50;30.70;;;;;;5047105;28;20219;-70
2022/04/12 11:10:32;;;;;;;3.80;3.50;;;37.00;30.20;;;;;;5051159;28;20207;-72
2022/04/12 11:13:09;;;;;;;3.58;3.28;;;37.60;30.20;;;;;;5048209;28;20207;-70
2022/04/12 11:15:37;;;;;;;3.97;3.67;;;38.50;29.00;;;;;;5039902;28;20598;-70
2022/04/12 11:18:13;;;;;;;3.00;2.67;;;39.10;29.30;;;;;;5042488;28;20168;-70
2022/04/12 11:20:44;;;;;;;3.65;3.35;;;39.80;28.30;;;;;;5043098;28;20232;-71
2022/04/12 11:23:11;;;;;;;3.70;3.35;;;39.70;28.90;;;;;;5053066;28;20203;-71
2022/04/12 11:25:51;;;;;;;3.08;2.75;;;39.40;27.30;;;;;;5059280;28;20183;-72
2022/04/12 11:28:24;;;;;;;4.28;3.97;;;38.50;28.30;;;;;;5049887;28;20191;-71
2022/04/12 11:30:59;;;;;;;3.30;3.00;;;38.30;27.90;;;;;;5053587;28;20203;-71
2022/04/12 11:33:27;;;;;;;3.80;3.60;;;38.40;27.30;;;;;;5047239;28;20290;-71
2022/04/12 11:35:54;;;;;;;4.70;3.80;;;38.00;28.90;;;;;;5043580;28;20264;-72
2022/04/12 11:38:22;;;;;;;3.97;3.70;;;37.80;28.30;;;;;;5041515;28;20267;-71
2022/04/12 11:40:51;;;;;;;3.25;3.00;;;37.90;28.80;;;;;;5041562;28;20677;-72
2022/04/12 11:43:25;;;;;;;3.28;3.03;;;38.40;28.30;;;;;;5048047;28;20207;-71
2022/04/12 11:45:52;;;;;;;4.20;3.90;;;38.10;27.90;;;;;;5046579;28;20191;-72
2022/04/12 11:48:18;;;;;;;3.15;2.95;;;38.80;28.10;;;;;;5054907;28;20194;-73
2022/04/12 11:50:53;;;;;;;3.40;3.17;;;38.10;27.60;;;;;;5050514;28;20200;-71
2022/04/12 11:53:20;;;;;;;3.45;3.17;;;37.70;28.40;;;;;;5040444;28;20244;-71
2022/04/12 11:55:46;;;;;;;3.97;2.95;;;37.80;28.70;;;;;;5045725;28;20177;-71
2022/04/12 11:58:13;;;;;;;3.13;2.92;;;37.70;27.10;;;;;;5049650;28;20199;-71
2022/04/12 12:00:39;;;;;;;4.53;3.03;;;37.00;27.20;;;;;;5055811;28;20183;-71
2022/04/12 12:03:05;;;;;;;3.60;3.40;;;36.60;27.90;;;;;;5048707;28;20218;-72
2022/04/12 12:05:31;;;;;;;3.38;3.17;;;36.50;28.20;;;;;;5050100;28;20183;-72
2022/04/12 12:08:01;;;;;;;3.80;3.60;;;36.80;28.00;;;;;;5039913;28;20524;-74
2022/04/12 12:10:30;;;;;;;3.10;2.90;;;36.50;27.70;;;;;;5050104;28;20572;-72
2022/04/12 12:12:56;;;;;;;3.60;3.30;;;36.00;27.90;;;;;;5047669;28;20685;-72
2022/04/12 12:15:27;;;;;;;3.38;3.17;;;35.40;28.00;;;;;;5050361;28;20191;-72
2022/04/12 12:17:54;;;;;;;3.05;2.95;;;36.20;28.20;;;;;;5056576;28;20171;-72
2022/04/12 12:20:23;;;;;;;3.97;2.90;;;37.10;27.70;;;;;;5045348;28;20175;-72
2022/04/12 12:22:52;;;;;;;5.75;3.05;;;37.60;27.80;;;;;;5057196;28;20195;-71
2022/04/12 12:25:21;;;;;;;4.38;2.80;;;37.60;27.10;;;;;;5045442;28;20266;-71
2022/04/12 12:27:53;;;;;;;3.55;2.80;;;37.20;27.90;;;;;;5058755;28;20171;-74
2022/04/12 12:30:21;;;;;;;5.75;2.53;;;37.70;27.60;;;;;;5036083;28;20615;-74
2022/04/12 12:32:54;;;;;;;6.15;3.13;;;37.60;27.00;;;;;;5050674;28;20291;-72
2022/04/12 12:35:25;;;;;;;2.63;2.42;;;36.70;27.00;;;;;;5051790;28;20179;-71
2022/04/12 12:37:57;;;;;;;4.35;3.22;;;37.40;27.70;;;;;;5049332;28;20257;-71
2022/04/12 12:40:25;;;;;;;2.75;2.50;;;37.30;26.50;;;;;;5052612;28;20191;-71
2022/04/12 12:42:53;;;;;;;2.97;2.60;;;36.70;26.70;;;;;;5057336;28;20195;-71
2022/04/12 12:45:24;;;;;;;2.92;2.60;;;36.80;27.40;;;;;;5046656;28;20215;-71
2022/04/12 12:47:54;;;;;;;2.58;2.47;;;36.40;27.30;;;;;;5055476;28;20179;-71
2022/04/12 12:50:21;;;;;;;3.03;2.60;;;35.90;27.10;;;;;;5052083;28;20581;-70
2022/04/12 12:52:48;;;;;;;2.58;2.28;;;34.80;27.70;;;;;;5055634;28;20202;-71
2022/04/12 12:55:16;;;;;;;2.20;2.10;;;34.10;26.30;;;;;;5044991;28;20179;-71